createdAt,value
2018-07-20T00:00:10.686Z,3.80
2018-07-20T00:02:39.101Z,3.90
2018-07-20T00:05:20.560Z,4.37
2018-07-20T00:07:49.041Z,4.93
2018-07-20T00:10:17.524Z,4.23
2018-07-20T00:12:46.011Z,4.40
2018-07-20T00:15:14.490Z,4.63
2018-07-20T00:17:42.933Z,4.17
2018-07-20T00:20:11.437Z,4.43
2018-07-20T00:22:39.924Z,4.07
2018-07-20T00:25:08.400Z,4.17
2018-07-20T00:27:36.846Z,4.47
2018-07-20T00:30:05.722Z,4.90
2018-07-20T00:32:34.237Z,4.63
2018-07-20T00:35:02.750Z,4.80
2018-07-20T00:37:31.243Z,4.70
2018-07-20T00:39:59.711Z,4.50
2018-07-20T00:42:28.193Z,4.70
2018-07-20T00:44:57.240Z,4.77
2018-07-20T00:47:25.799Z,4.90
2018-07-20T00:49:54.689Z,4.63
2018-07-20T00:52:23.297Z,4.10
2018-07-20T00:54:51.923Z,5.57
2018-07-20T00:57:20.761Z,4.40
2018-07-20T00:59:49.297Z,4.43
2018-07-20T01:02:17.773Z,3.77
2018-07-20T01:04:46.885Z,3.80
2018-07-20T01:07:15.370Z,4.47
2018-07-20T01:09:43.922Z,4.77
2018-07-20T01:12:12.403Z,5.10
2018-07-20T01:14:40.832Z,5.20
2018-07-20T01:17:09.440Z,5.63
2018-07-20T01:19:37.966Z,5.77
2018-07-20T01:22:06.433Z,5.77
2018-07-20T01:24:34.926Z,4.83
2018-07-20T01:27:03.426Z,4.73
2018-07-20T01:29:31.838Z,4.43
2018-07-20T01:32:00.381Z,4.83
2018-07-20T01:34:28.848Z,4.70
2018-07-20T01:36:57.345Z,4.50
2018-07-20T01:39:25.936Z,5.67
2018-07-20T01:41:54.520Z,4.10
2018-07-20T01:44:23.044Z,4.70
2018-07-20T01:46:51.555Z,4.37
2018-07-20T01:49:19.981Z,4.30
2018-07-20T01:51:56.312Z,5.50
2018-07-20T01:54:24.821Z,4.30
2018-07-20T01:56:53.536Z,4.80
2018-07-20T01:59:21.972Z,5.93
2018-07-20T02:01:50.413Z,5.87
2018-07-20T02:04:18.925Z,6.53
2018-07-20T02:06:47.769Z,4.87
2018-07-20T02:09:16.308Z,4.47
2018-07-20T02:11:44.788Z,5.37
2018-07-20T02:14:13.252Z,4.47
2018-07-20T02:16:41.766Z,5.93
2018-07-20T02:19:10.222Z,4.63
2018-07-20T02:21:38.744Z,5.43
2018-07-20T02:24:07.324Z,5.83
2018-07-20T02:26:35.743Z,6.70
2018-07-20T02:29:04.197Z,6.47
2018-07-20T02:31:32.757Z,5.10
2018-07-20T02:34:01.254Z,5.57
2018-07-20T02:36:29.686Z,4.77
2018-07-20T02:38:58.192Z,4.70
2018-07-20T02:41:26.680Z,5.70
2018-07-20T02:43:55.146Z,6.67
2018-07-20T02:46:36.244Z,5.50
2018-07-20T02:49:04.726Z,7.57
2018-07-20T02:51:33.160Z,6.77
2018-07-20T02:54:01.683Z,6.00
2018-07-20T02:56:30.346Z,5.23
2018-07-20T02:58:58.849Z,5.07
2018-07-20T03:01:27.325Z,5.93
2018-07-20T03:03:55.743Z,5.73
2018-07-20T03:06:24.187Z,5.27
2018-07-20T03:08:52.615Z,4.90
2018-07-20T03:11:21.050Z,5.73
2018-07-20T03:13:49.552Z,6.13
2018-07-20T03:16:25.173Z,6.37
2018-07-20T03:18:53.677Z,6.73
2018-07-20T03:21:22.135Z,6.30
2018-07-20T03:23:50.628Z,6.93
2018-07-20T03:26:19.166Z,7.53
2018-07-20T03:28:47.568Z,7.10
2018-07-20T03:31:16.070Z,7.67
2018-07-20T03:33:44.546Z,7.90
2018-07-20T03:36:13.045Z,5.73
2018-07-20T03:38:41.509Z,8.50
2018-07-20T03:41:10.005Z,6.13
2018-07-20T03:43:38.532Z,7.97
2018-07-20T03:46:07.080Z,6.43
2018-07-20T03:48:35.580Z,7.73
2018-07-20T03:51:04.130Z,7.27
2018-07-20T03:53:32.611Z,7.33
2018-07-20T03:56:01.250Z,7.50
2018-07-20T03:58:29.784Z,7.37
2018-07-20T04:00:58.260Z,8.33
2018-07-20T04:03:26.695Z,8.83
2018-07-20T04:05:55.266Z,9.63
2018-07-20T04:08:24.508Z,6.57
2018-07-20T04:10:53.007Z,8.10
2018-07-20T04:13:21.489Z,7.87
2018-07-20T04:15:49.983Z,6.47
2018-07-20T04:18:18.570Z,7.23
2018-07-20T04:20:47.052Z,7.07
2018-07-20T04:23:15.530Z,11.03
2018-07-20T04:25:44.002Z,11.07
2018-07-20T04:28:12.485Z,11.20
2018-07-20T04:30:41.021Z,10.00
2018-07-20T04:33:09.547Z,9.07
2018-07-20T04:35:38.017Z,9.70
2018-07-20T04:38:06.584Z,10.07
2018-07-20T04:40:35.107Z,10.47
2018-07-20T04:43:03.678Z,10.80
2018-07-20T04:45:32.314Z,9.80
2018-07-20T04:48:00.729Z,9.57
2018-07-20T04:50:29.237Z,15.33
2018-07-20T04:52:58.035Z,21.53
2018-07-20T04:55:26.601Z,25.83
2018-07-20T04:57:55.053Z,24.70
2018-07-20T05:00:23.552Z,26.23
2018-07-20T05:02:52.063Z,32.57
2018-07-20T05:05:20.557Z,32.97
2018-07-20T05:07:49.123Z,34.27
2018-07-20T05:10:17.613Z,34.27
2018-07-20T05:12:46.081Z,33.20
2018-07-20T05:15:14.560Z,31.63
2018-07-20T05:17:43.080Z,30.87
2018-07-20T05:20:11.676Z,33.23
2018-07-20T05:22:40.207Z,33.20
2018-07-20T05:25:08.748Z,34.80
2018-07-20T05:27:37.284Z,32.17
2018-07-20T05:30:06.176Z,32.97
2018-07-20T05:32:34.640Z,33.33
2018-07-20T05:35:03.257Z,32.23
2018-07-20T05:37:31.731Z,31.63
2018-07-20T05:40:00.193Z,31.60
2018-07-20T05:42:28.631Z,30.93
2018-07-20T05:44:57.096Z,31.63
2018-07-20T05:47:25.675Z,30.20
2018-07-20T05:49:54.223Z,30.47
2018-07-20T05:52:22.812Z,28.77
2018-07-20T05:54:51.290Z,28.97
2018-07-20T05:57:19.777Z,30.40
2018-07-20T05:59:48.263Z,30.07
2018-07-20T06:02:17.068Z,27.57
2018-07-20T06:04:45.504Z,29.27
2018-07-20T06:07:14.067Z,27.43
2018-07-20T06:09:42.588Z,28.33
2018-07-20T06:12:11.117Z,25.20
2018-07-20T06:14:39.657Z,27.40
2018-07-20T06:17:08.150Z,25.23
2018-07-20T06:19:36.642Z,29.00
2018-07-20T06:22:22.111Z,26.07
2018-07-20T06:24:50.553Z,27.10
2018-07-20T06:27:19.000Z,25.53
2018-07-20T06:29:47.600Z,26.37
2018-07-20T06:32:16.142Z,26.20
2018-07-20T06:34:44.619Z,26.57
2018-07-20T06:37:13.145Z,26.83
2018-07-20T06:39:41.575Z,26.53
2018-07-20T06:42:10.109Z,26.73
2018-07-20T06:44:38.655Z,24.60
2018-07-20T06:47:07.478Z,26.07
2018-07-20T06:49:36.010Z,24.27
2018-07-20T06:52:04.478Z,24.87
2018-07-20T06:54:32.991Z,23.30
2018-07-20T06:57:01.477Z,24.47
2018-07-20T06:59:30.043Z,25.53
2018-07-20T07:01:58.520Z,23.93
2018-07-20T07:04:27.006Z,26.60
2018-07-20T07:06:55.490Z,25.27
2018-07-20T07:09:24.115Z,23.40
2018-07-20T07:11:52.553Z,23.53
2018-07-20T07:14:21.091Z,24.60
2018-07-20T07:16:49.559Z,24.73
2018-07-20T07:19:18.836Z,21.60
2018-07-20T07:21:47.414Z,22.73
2018-07-20T07:24:15.961Z,21.70
2018-07-20T07:26:44.484Z,23.93
2018-07-20T07:29:12.926Z,22.90
2018-07-20T07:31:41.711Z,23.50
2018-07-20T07:34:10.242Z,23.37
2018-07-20T07:36:38.813Z,24.47
2018-07-20T07:39:10.665Z,24.30
2018-07-20T07:41:39.161Z,21.00
2018-07-20T07:44:07.644Z,19.40
2018-07-20T07:46:36.217Z,19.57
2018-07-20T07:49:05.509Z,20.23
2018-07-20T07:51:34.096Z,19.50
2018-07-20T07:54:02.574Z,19.17
2018-07-20T07:56:31.172Z,18.97
2018-07-20T07:58:59.745Z,18.83
2018-07-20T08:01:28.226Z,18.33
2018-07-20T08:03:56.818Z,18.43
2018-07-20T08:06:25.303Z,14.00
2018-07-20T08:08:53.781Z,17.10
2018-07-20T08:11:22.212Z,14.00
2018-07-20T08:13:50.752Z,16.30
2018-07-20T08:16:19.326Z,16.60
2018-07-20T08:18:47.805Z,20.10
2018-07-20T08:21:16.409Z,22.90
2018-07-20T08:23:44.984Z,22.13
2018-07-20T08:26:13.572Z,18.47
2018-07-20T08:28:42.041Z,19.60
2018-07-20T08:31:10.636Z,14.03
2018-07-20T08:33:39.880Z,18.40
2018-07-20T08:36:08.332Z,13.50
2018-07-20T08:38:36.836Z,12.27
2018-07-20T08:41:05.432Z,11.87
2018-07-20T08:43:33.961Z,11.37
2018-07-20T08:46:02.437Z,13.57
2018-07-20T08:48:30.924Z,10.77
2018-07-20T08:50:59.392Z,13.13
2018-07-20T08:53:27.857Z,13.27
2018-07-20T08:55:56.584Z,10.70
2018-07-20T08:58:25.264Z,11.53
2018-07-20T09:00:53.778Z,11.83
2018-07-20T09:03:22.356Z,12.63
2018-07-20T09:05:50.915Z,9.40
2018-07-20T09:08:19.405Z,11.23
2018-07-20T09:10:47.977Z,10.27
2018-07-20T09:13:16.443Z,10.07
2018-07-20T09:15:44.926Z,8.53
2018-07-20T09:18:13.512Z,10.57
2018-07-20T09:20:42.083Z,11.53
2018-07-20T09:23:10.787Z,5.77
2018-07-20T09:25:39.311Z,11.03
2018-07-20T09:28:08.063Z,9.07
2018-07-20T09:30:36.593Z,7.83
2018-07-20T09:33:05.116Z,4.80
2018-07-20T09:35:33.642Z,4.77
2018-07-20T09:38:02.203Z,5.50
2018-07-20T09:40:30.810Z,5.23
2018-07-20T09:42:59.270Z,5.60
2018-07-20T09:45:27.694Z,4.70
2018-07-20T09:47:56.229Z,6.23
2018-07-20T09:50:24.723Z,5.80
2018-07-20T09:52:53.165Z,7.17
2018-07-20T09:55:21.642Z,5.50
2018-07-20T09:57:50.126Z,6.63
2018-07-20T10:01:21.629Z,5.40
2018-07-20T10:03:50.199Z,8.30
2018-07-20T10:06:18.633Z,5.40
2018-07-20T10:08:47.151Z,6.23
2018-07-20T10:11:15.745Z,4.50
2018-07-20T10:13:44.314Z,5.30
2018-07-20T10:16:12.789Z,4.67
2018-07-20T10:18:42.413Z,4.40
2018-07-20T10:21:10.925Z,5.40
2018-07-20T10:23:39.460Z,4.47
2018-07-20T10:26:08.873Z,6.90
2018-07-20T10:28:37.363Z,5.40
2018-07-20T10:31:05.834Z,6.20
2018-07-20T10:33:34.352Z,4.87
2018-07-20T10:36:02.891Z,6.17
2018-07-20T10:38:31.475Z,5.00
2018-07-20T10:41:01.005Z,6.70
2018-07-20T10:43:29.566Z,4.57
2018-07-20T10:45:58.104Z,6.60
2018-07-20T10:48:26.663Z,5.13
2018-07-20T10:50:55.321Z,5.37
2018-07-20T10:53:23.812Z,5.93
2018-07-20T10:55:52.281Z,5.00
2018-07-20T10:58:20.758Z,5.70
2018-07-20T11:00:49.197Z,6.43
2018-07-20T11:03:17.746Z,5.70
2018-07-20T11:05:46.312Z,7.17
2018-07-20T11:08:14.794Z,7.07
2018-07-20T11:10:43.370Z,6.23
2018-07-20T11:13:11.828Z,5.97
2018-07-20T11:15:40.459Z,6.40
2018-07-20T11:18:08.913Z,7.43
2018-07-20T11:20:37.361Z,7.63
2018-07-20T11:23:05.914Z,8.10
2018-07-20T11:25:34.474Z,7.40
2018-07-20T11:28:10.837Z,8.30
2018-07-20T11:30:39.327Z,7.77
2018-07-20T11:33:07.825Z,7.57
2018-07-20T11:35:36.388Z,6.53
2018-07-20T11:38:04.868Z,8.00
2018-07-20T11:40:33.326Z,6.00
2018-07-20T11:43:01.916Z,6.73
2018-07-20T11:45:30.413Z,6.50
2018-07-20T11:47:58.869Z,5.67
2018-07-20T11:50:28.084Z,5.73
2018-07-20T11:52:56.571Z,5.93
2018-07-20T11:55:25.025Z,5.57
2018-07-20T11:57:53.526Z,5.30
2018-07-20T12:00:21.994Z,5.60
2018-07-20T12:02:50.696Z,5.73
2018-07-20T12:05:19.200Z,5.60
2018-07-20T12:07:47.865Z,6.17
2018-07-20T12:10:16.409Z,5.70
2018-07-20T12:12:44.933Z,6.77
2018-07-20T12:15:13.389Z,6.10
2018-07-20T12:17:41.857Z,6.30
2018-07-20T12:20:10.576Z,6.50
2018-07-20T12:22:39.014Z,6.43
2018-07-20T12:25:07.581Z,6.37
2018-07-20T12:27:36.221Z,5.57
2018-07-20T12:30:05.222Z,6.27
2018-07-20T12:32:33.795Z,5.93
2018-07-20T12:35:02.327Z,5.87
2018-07-20T12:37:30.872Z,6.37
2018-07-20T12:39:59.346Z,6.03
2018-07-20T12:42:27.938Z,5.80
2018-07-20T12:44:56.508Z,5.40
2018-07-20T12:47:25.006Z,5.53
2018-07-20T12:49:53.687Z,6.00
2018-07-20T12:53:13.126Z,6.50
2018-07-20T12:55:41.661Z,6.60
2018-07-20T12:58:10.228Z,5.60
2018-07-20T13:00:38.709Z,6.60
2018-07-20T13:03:07.172Z,6.13
2018-07-20T13:05:35.724Z,5.30
2018-07-20T13:08:13.121Z,5.83
2018-07-20T13:10:41.651Z,5.83
2018-07-20T13:13:10.122Z,5.67
2018-07-20T13:15:38.684Z,6.30
2018-07-20T13:18:07.266Z,6.20
2018-07-20T13:20:35.873Z,6.33
2018-07-20T13:23:04.359Z,6.13
2018-07-20T13:25:32.837Z,6.30
2018-07-20T13:28:01.446Z,6.17
2018-07-20T13:30:29.994Z,6.37
2018-07-20T13:32:58.473Z,6.57
2018-07-20T13:35:27.223Z,6.17
2018-07-20T13:37:56.462Z,6.30
2018-07-20T13:40:24.953Z,7.80
2018-07-20T13:42:53.569Z,6.60
2018-07-20T13:45:22.020Z,6.37
2018-07-20T13:47:50.516Z,6.60
2018-07-20T13:50:18.980Z,6.80
2018-07-20T13:52:47.496Z,6.50
2018-07-20T13:55:15.982Z,5.93
2018-07-20T13:57:44.525Z,7.30
2018-07-20T14:00:13.013Z,6.10
2018-07-20T14:02:41.598Z,6.00
2018-07-20T14:05:10.080Z,6.17
2018-07-20T14:07:38.548Z,5.93
2018-07-20T14:10:07.009Z,6.30
2018-07-20T14:12:35.490Z,5.90
2018-07-20T14:15:04.048Z,6.03
2018-07-20T14:17:32.582Z,6.67
2018-07-20T14:20:01.027Z,6.20
2018-07-20T14:22:29.544Z,6.73
2018-07-20T14:24:58.055Z,7.37
2018-07-20T14:27:26.600Z,6.60
2018-07-20T14:29:55.056Z,6.33
2018-07-20T14:32:23.539Z,6.67
2018-07-20T14:34:56.345Z,6.70
2018-07-20T14:37:24.844Z,7.80
2018-07-20T14:39:53.445Z,6.60
2018-07-20T14:42:21.898Z,6.63
2018-07-20T14:44:50.381Z,6.30
2018-07-20T14:47:19.023Z,6.10
2018-07-20T14:49:47.595Z,5.63
2018-07-20T14:52:16.101Z,5.93
2018-07-20T14:55:03.361Z,5.73
2018-07-20T14:57:31.957Z,6.20
2018-07-20T15:00:00.517Z,5.27
2018-07-20T15:02:29.007Z,5.37
2018-07-20T15:04:57.717Z,5.87
2018-07-20T15:07:26.285Z,5.50
2018-07-20T15:09:54.761Z,5.33
2018-07-20T15:12:23.324Z,5.53
2018-07-20T15:14:51.803Z,6.27
2018-07-20T15:17:20.297Z,5.57
2018-07-20T15:19:48.736Z,5.30
2018-07-20T15:22:17.262Z,5.90
2018-07-20T15:24:45.897Z,4.90
2018-07-20T15:27:14.633Z,5.70
2018-07-20T15:29:43.305Z,5.63
2018-07-20T15:32:12.003Z,5.60
2018-07-20T15:34:40.473Z,5.90
2018-07-20T15:37:09.055Z,5.33
2018-07-20T15:39:37.544Z,5.80
2018-07-20T15:42:06.044Z,4.93
2018-07-20T15:44:34.632Z,4.93
2018-07-20T15:47:03.293Z,5.47
2018-07-20T15:49:31.792Z,5.40
2018-07-20T15:54:28.958Z,5.53
2018-07-20T15:56:57.468Z,5.10
2018-07-20T15:59:26.003Z,4.90
2018-07-20T16:01:54.470Z,5.30
2018-07-20T16:04:23.014Z,4.97
2018-07-20T16:06:51.647Z,5.13
2018-07-20T16:09:20.241Z,5.37
2018-07-20T16:11:48.724Z,5.20
2018-07-20T16:14:17.210Z,5.40
2018-07-20T16:16:45.664Z,4.77
2018-07-20T16:19:14.168Z,4.67
2018-07-20T16:21:42.805Z,4.80
2018-07-20T16:24:11.328Z,4.93
2018-07-20T16:26:39.820Z,5.03
2018-07-20T16:29:08.413Z,5.07
2018-07-20T16:31:36.876Z,4.23
2018-07-20T16:34:05.377Z,5.00
2018-07-20T16:36:33.872Z,4.20
2018-07-20T16:39:02.493Z,4.70
2018-07-20T16:41:31.000Z,4.53
2018-07-20T16:43:59.447Z,4.40
2018-07-20T16:46:28.024Z,4.70
2018-07-20T16:48:56.554Z,4.07
2018-07-20T16:51:25.182Z,4.67
2018-07-20T16:53:53.621Z,5.57
2018-07-20T16:56:22.075Z,4.93
2018-07-20T16:58:50.561Z,5.43
2018-07-20T17:01:19.020Z,4.80
2018-07-20T17:03:47.452Z,4.70
2018-07-20T17:06:16.043Z,4.57
2018-07-20T17:08:44.601Z,5.07
2018-07-20T17:11:13.056Z,4.93
2018-07-20T17:13:41.549Z,4.00
2018-07-20T17:16:10.076Z,4.30
2018-07-20T17:18:39.136Z,4.23
2018-07-20T17:21:07.744Z,3.70
2018-07-20T17:23:37.244Z,4.17
2018-07-20T17:26:06.137Z,4.07
2018-07-20T17:28:34.789Z,5.17
2018-07-20T17:31:03.305Z,4.10
2018-07-20T17:33:31.983Z,4.97
2018-07-20T17:36:00.419Z,4.70
2018-07-20T17:45:19.203Z,3.80
2018-07-20T17:47:47.668Z,5.00
2018-07-20T17:50:16.136Z,4.90
2018-07-20T17:52:44.607Z,4.00
2018-07-20T17:55:17.122Z,4.80
2018-07-20T17:57:45.670Z,3.80
2018-07-20T18:00:14.354Z,3.43
2018-07-20T18:02:42.847Z,4.23
2018-07-20T18:05:11.436Z,6.33
2018-07-20T18:07:39.862Z,3.50
2018-07-20T18:10:08.393Z,3.60
2018-07-20T18:12:36.973Z,3.70
2018-07-20T18:15:06.283Z,4.20
2018-07-20T18:17:34.797Z,4.07
2018-07-20T18:20:03.286Z,4.50
2018-07-20T18:22:31.848Z,3.63
2018-07-20T18:25:00.293Z,4.53
2018-07-20T18:27:28.895Z,4.30
2018-07-20T18:29:57.514Z,4.53
2018-07-20T18:32:28.812Z,3.90
2018-07-20T18:34:57.301Z,4.90
2018-07-20T18:37:25.881Z,3.87
2018-07-20T18:39:54.407Z,4.13
2018-07-20T18:42:23.268Z,3.70
2018-07-20T18:44:51.720Z,4.53
2018-07-20T18:47:20.263Z,4.10
2018-07-20T18:49:48.809Z,4.40
2018-07-20T18:52:17.480Z,3.20
2018-07-20T18:54:45.949Z,4.33
2018-07-20T18:57:15.574Z,4.03
2018-07-20T18:59:44.126Z,4.33
2018-07-20T19:02:12.641Z,4.00
2018-07-20T19:04:41.222Z,4.27
2018-07-20T19:07:09.674Z,4.37
2018-07-20T19:09:38.190Z,4.27
2018-07-20T19:12:06.674Z,4.50
2018-07-20T19:14:35.295Z,3.57
2018-07-20T19:17:11.672Z,4.07
2018-07-20T19:19:48.703Z,3.70
2018-07-20T19:22:22.718Z,4.40
2018-07-20T19:24:51.566Z,3.87
2018-07-20T19:27:24.534Z,4.93
2018-07-20T19:29:53.067Z,4.50
2018-07-20T19:32:21.559Z,3.73
2018-07-20T19:34:50.333Z,4.23
2018-07-20T19:37:18.921Z,4.03
2018-07-20T19:39:47.516Z,4.30
2018-07-20T19:42:16.009Z,3.60
2018-07-20T19:44:44.502Z,4.50
2018-07-20T19:47:12.963Z,4.03
2018-07-20T19:49:41.721Z,3.33
2018-07-20T19:52:10.445Z,5.50
2018-07-20T19:54:39.020Z,4.30
2018-07-20T19:57:07.934Z,4.50
2018-07-20T19:59:36.637Z,4.07
2018-07-20T20:02:05.271Z,3.53
2018-07-20T20:04:33.737Z,4.07
2018-07-20T20:07:03.407Z,3.60
2018-07-20T20:09:31.866Z,4.50
2018-07-20T20:12:01.552Z,4.27
2018-07-20T20:14:30.062Z,4.07
2018-07-20T20:16:58.622Z,5.30
2018-07-20T20:19:27.161Z,4.30
2018-07-20T20:21:55.621Z,5.10
2018-07-20T20:24:24.202Z,4.30
2018-07-20T20:26:52.795Z,4.60
2018-07-20T20:29:21.348Z,4.37
2018-07-20T20:31:49.941Z,5.00
2018-07-20T20:34:18.424Z,3.63
2018-07-20T20:36:46.920Z,5.13
2018-07-20T20:39:15.487Z,4.97
2018-07-20T20:41:43.981Z,4.27
2018-07-20T20:44:12.518Z,4.13
2018-07-20T20:46:41.337Z,4.70
2018-07-20T20:49:09.932Z,3.83
2018-07-20T20:51:38.544Z,5.10
2018-07-20T20:54:07.754Z,4.60
2018-07-20T20:56:36.321Z,5.67
2018-07-20T20:59:05.040Z,5.67
2018-07-20T21:01:33.592Z,6.13
2018-07-20T21:04:02.041Z,4.93
2018-07-20T21:06:30.629Z,6.40
2018-07-20T21:08:59.132Z,5.10
2018-07-20T21:11:27.674Z,7.53
2018-07-20T21:13:56.222Z,6.23
2018-07-20T21:16:24.792Z,6.80
2018-07-20T21:18:53.341Z,7.57
2018-07-20T21:21:21.821Z,7.70
2018-07-20T21:23:50.421Z,7.87
2018-07-20T21:26:19.086Z,7.60
2018-07-20T21:28:47.663Z,7.47
2018-07-20T21:31:16.122Z,7.80
2018-07-20T21:33:44.646Z,7.30
2018-07-20T21:36:13.224Z,7.50
2018-07-20T21:38:42.052Z,7.43
2018-07-20T21:41:10.537Z,7.47
2018-07-20T21:43:39.163Z,6.27
2018-07-20T21:46:07.865Z,6.70
2018-07-20T21:48:36.477Z,6.47
2018-07-20T21:51:05.027Z,6.97
2018-07-20T21:53:33.600Z,6.20
2018-07-20T21:56:02.084Z,6.50
2018-07-20T21:58:30.583Z,6.50
2018-07-20T22:00:59.361Z,6.00
2018-07-20T22:03:27.953Z,6.30
2018-07-20T22:05:56.391Z,6.00
2018-07-20T22:08:25.000Z,5.87
2018-07-20T22:10:53.544Z,5.73
2018-07-20T22:13:22.098Z,5.20
2018-07-20T22:15:50.704Z,5.50
2018-07-20T22:18:19.174Z,5.30
2018-07-20T22:20:47.834Z,5.43
2018-07-20T22:23:16.514Z,6.13
2018-07-20T22:25:45.133Z,5.93
2018-07-20T22:28:34.476Z,6.27
2018-07-20T22:31:03.084Z,5.50
2018-07-20T22:33:31.660Z,5.77
2018-07-20T22:36:00.137Z,5.77
2018-07-20T22:38:28.605Z,5.60
2018-07-20T22:40:57.202Z,5.70
2018-07-20T22:43:25.772Z,5.37
2018-07-20T22:45:54.214Z,5.70
2018-07-20T22:48:22.780Z,5.30
2018-07-20T22:50:51.335Z,5.43
2018-07-20T22:53:19.942Z,5.77
2018-07-20T22:55:48.495Z,6.10
2018-07-20T22:58:17.021Z,6.67
2018-07-20T23:01:07.055Z,6.50
2018-07-20T23:03:35.574Z,6.03
2018-07-20T23:06:04.114Z,8.37
2018-07-20T23:08:32.590Z,8.60
2018-07-20T23:11:01.089Z,9.97
2018-07-20T23:13:29.566Z,10.00
2018-07-20T23:15:58.246Z,9.87
2018-07-20T23:18:26.740Z,10.83
2018-07-20T23:20:55.280Z,11.07
2018-07-20T23:23:23.839Z,10.93
2018-07-20T23:25:52.274Z,10.93
2018-07-20T23:28:20.879Z,10.07
2018-07-20T23:30:49.457Z,11.10
2018-07-20T23:33:17.978Z,12.77
2018-07-20T23:35:46.508Z,13.43
2018-07-20T23:38:15.007Z,15.83
2018-07-20T23:40:43.488Z,12.83
2018-07-20T23:43:12.055Z,12.13
2018-07-20T23:45:40.541Z,14.80
2018-07-20T23:48:09.035Z,14.17
2018-07-20T23:50:37.816Z,13.90
2018-07-20T23:53:06.320Z,13.87
2018-07-20T23:55:34.772Z,13.63
2018-07-20T23:58:03.255Z,11.43
